createdAt,value
2018-09-25T00:00:54.404Z,9.03
2018-09-25T00:03:27.405Z,6.13
2018-09-25T00:06:00.381Z,3.77
2018-09-25T00:08:33.497Z,3.97
2018-09-25T00:11:06.738Z,4.50
2018-09-25T00:13:39.985Z,6.20
2018-09-25T00:16:12.918Z,3.27
2018-09-25T00:18:46.289Z,9.00
2018-09-25T00:21:19.266Z,3.67
2018-09-25T00:23:52.962Z,3.37
2018-09-25T00:26:25.945Z,2.30
2018-09-25T00:28:59.237Z,3.30
2018-09-25T00:31:32.132Z,3.93
2018-09-25T00:34:05.482Z,5.57
2018-09-25T00:36:38.508Z,3.40
2018-09-25T00:39:13.677Z,4.37
2018-09-25T00:41:46.781Z,5.50
2018-09-25T00:44:19.988Z,5.93
2018-09-25T00:46:53.115Z,4.40
2018-09-25T00:49:26.057Z,3.93
2018-09-25T00:51:59.426Z,2.87
2018-09-25T00:54:32.477Z,3.43
2018-09-25T00:57:06.093Z,2.60
2018-09-25T00:59:39.173Z,5.60
2018-09-25T01:02:12.285Z,5.83
2018-09-25T01:04:45.185Z,5.50
2018-09-25T01:07:18.101Z,3.27
2018-09-25T01:09:51.136Z,4.83
2018-09-25T01:12:24.272Z,5.73
2018-09-25T01:14:57.253Z,4.40
2018-09-25T01:17:30.173Z,3.90
2018-09-25T01:20:05.229Z,8.83
2018-09-25T01:22:38.099Z,6.10
2018-09-25T01:25:11.229Z,3.43
2018-09-25T01:27:44.433Z,5.97
2018-09-25T01:30:17.301Z,4.10
2018-09-25T01:32:50.166Z,6.87
2018-09-25T01:35:23.683Z,3.27
2018-09-25T01:37:56.649Z,5.73
2018-09-25T01:40:29.837Z,5.43
2018-09-25T01:43:02.854Z,4.73
2018-09-25T01:45:36.001Z,5.10
2018-09-25T01:48:09.193Z,8.40
2018-09-25T01:50:42.126Z,6.67
2018-09-25T01:53:15.011Z,5.53
2018-09-25T01:55:48.013Z,5.50
2018-09-25T01:58:20.889Z,5.50
2018-09-25T02:00:54.106Z,8.43
2018-09-25T02:03:27.061Z,5.93
2018-09-25T02:06:00.334Z,5.70
2018-09-25T02:08:33.217Z,7.43
2018-09-25T02:11:06.201Z,4.20
2018-09-25T02:13:39.222Z,6.60
2018-09-25T02:16:12.188Z,5.90
2018-09-25T02:18:45.340Z,6.00
2018-09-25T02:21:18.408Z,7.60
2018-09-25T02:23:59.111Z,6.83
2018-09-25T02:26:31.949Z,6.07
2018-09-25T02:29:04.862Z,8.77
2018-09-25T02:31:37.721Z,6.40
2018-09-25T02:34:10.632Z,9.57
2018-09-25T02:36:43.953Z,7.73
2018-09-25T02:39:16.868Z,6.23
2018-09-25T02:41:49.856Z,7.40
2018-09-25T02:44:22.816Z,6.20
2018-09-25T02:46:55.729Z,6.30
2018-09-25T02:49:28.693Z,5.37
2018-09-25T02:52:01.773Z,6.67
2018-09-25T02:54:34.684Z,6.30
2018-09-25T02:57:07.717Z,6.43
2018-09-25T02:59:40.774Z,5.73
2018-09-25T03:02:13.757Z,7.00
2018-09-25T03:04:46.763Z,7.97
2018-09-25T03:07:19.897Z,5.60
2018-09-25T03:09:52.863Z,7.17
2018-09-25T03:12:25.932Z,5.57
2018-09-25T03:14:58.942Z,5.37
2018-09-25T03:17:32.153Z,5.77
2018-09-25T03:20:05.381Z,4.93
2018-09-25T03:22:38.374Z,5.27
2018-09-25T03:25:11.521Z,9.20
2018-09-25T03:27:44.720Z,7.03
2018-09-25T03:30:17.842Z,7.27
2018-09-25T03:32:50.870Z,6.00
2018-09-25T03:35:23.776Z,7.27
2018-09-25T03:37:56.861Z,12.60
2018-09-25T03:40:30.021Z,5.97
2018-09-25T03:43:05.126Z,7.73
2018-09-25T03:45:38.025Z,11.37
2018-09-25T03:48:11.399Z,6.97
2018-09-25T03:50:44.537Z,8.87
2018-09-25T03:53:17.713Z,6.30
2018-09-25T03:55:50.674Z,6.70
2018-09-25T03:58:23.631Z,6.50
2018-09-25T04:00:56.573Z,5.33
2018-09-25T04:03:29.547Z,10.90
2018-09-25T04:06:02.621Z,15.83
2018-09-25T04:08:35.541Z,7.07
2018-09-25T04:11:08.505Z,7.43
2018-09-25T04:13:41.686Z,10.63
2018-09-25T04:16:14.765Z,7.43
2018-09-25T04:18:47.671Z,7.80
2018-09-25T04:21:20.764Z,9.17
2018-09-25T04:23:53.950Z,9.30
2018-09-25T04:26:26.937Z,7.93
2018-09-25T04:28:59.917Z,6.17
2018-09-25T04:31:32.863Z,6.33
2018-09-25T04:34:06.128Z,6.13
2018-09-25T04:36:38.993Z,6.80
2018-09-25T04:39:13.453Z,6.13
2018-09-25T04:41:46.957Z,8.23
2018-09-25T04:44:19.850Z,6.93
2018-09-25T04:46:52.977Z,11.03
2018-09-25T04:49:26.185Z,12.20
2018-09-25T04:51:59.237Z,7.03
2018-09-25T04:54:32.434Z,9.30
2018-09-25T04:57:05.614Z,6.70
2018-09-25T04:59:38.613Z,7.83
2018-09-25T05:02:11.705Z,7.50
2018-09-25T05:04:45.142Z,9.80
2018-09-25T05:07:18.215Z,7.87
2018-09-25T05:09:51.381Z,10.73
2018-09-25T05:12:24.617Z,6.47
2018-09-25T05:14:57.505Z,12.63
2018-09-25T05:17:30.633Z,13.20
2018-09-25T05:20:03.493Z,15.03
2018-09-25T05:22:36.724Z,13.50
2018-09-25T05:25:09.854Z,9.67
2018-09-25T05:27:42.970Z,9.60
2018-09-25T05:30:15.973Z,7.77
2018-09-25T05:32:49.025Z,6.63
2018-09-25T05:35:22.717Z,14.37
2018-09-25T05:37:55.661Z,7.20
2018-09-25T05:40:28.777Z,12.50
2018-09-25T05:43:02.045Z,10.20
2018-09-25T05:45:35.016Z,8.33
2018-09-25T05:48:08.137Z,7.70
2018-09-25T05:50:41.046Z,12.73
2018-09-25T05:53:14.025Z,7.93
2018-09-25T05:55:47.196Z,6.00
2018-09-25T05:58:20.111Z,7.00
2018-09-25T06:00:53.046Z,8.43
2018-09-25T06:03:26.197Z,9.60
2018-09-25T06:05:59.105Z,9.23
2018-09-25T06:08:32.340Z,9.27
2018-09-25T06:11:05.613Z,8.93
2018-09-25T06:13:38.825Z,9.80
2018-09-25T06:16:11.750Z,8.17
2018-09-25T06:18:44.653Z,7.57
2018-09-25T06:21:17.886Z,9.50
2018-09-25T06:23:50.845Z,7.87
2018-09-25T06:26:24.093Z,8.93
2018-09-25T06:28:57.287Z,8.83
2018-09-25T06:31:30.249Z,8.60
2018-09-25T06:34:03.433Z,10.63
2018-09-25T06:36:36.329Z,14.90
2018-09-25T06:39:12.367Z,8.13
2018-09-25T06:41:45.590Z,11.33
2018-09-25T06:44:18.700Z,7.87
2018-09-25T06:46:51.845Z,13.97
2018-09-25T06:49:25.061Z,10.53
2018-09-25T06:51:58.249Z,9.47
2018-09-25T06:54:31.157Z,9.40
2018-09-25T06:57:04.348Z,9.27
2018-09-25T06:59:37.493Z,12.50
2018-09-25T07:02:10.421Z,13.47
2018-09-25T07:04:43.442Z,11.70
2018-09-25T07:07:16.349Z,9.80
2018-09-25T07:09:49.411Z,9.00
2018-09-25T07:12:22.229Z,8.63
2018-09-25T07:14:55.142Z,10.23
2018-09-25T07:17:28.361Z,8.73
2018-09-25T07:20:01.300Z,7.10
2018-09-25T07:22:34.561Z,6.50
2018-09-25T07:25:07.766Z,6.93
2018-09-25T07:27:40.705Z,7.70
2018-09-25T07:30:13.985Z,8.80
2018-09-25T07:32:47.157Z,9.67
2018-09-25T07:35:20.140Z,8.00
2018-09-25T07:37:53.241Z,11.13
2018-09-25T07:40:26.157Z,9.30
2018-09-25T07:42:59.469Z,10.17
2018-09-25T07:45:32.641Z,8.03
2018-09-25T07:48:05.831Z,8.93
2018-09-25T07:50:38.742Z,11.03
2018-09-25T07:53:11.972Z,8.90
2018-09-25T07:55:44.970Z,8.37
2018-09-25T07:58:18.045Z,7.77
2018-09-25T08:00:51.255Z,11.40
2018-09-25T08:03:24.176Z,10.10
2018-09-25T08:05:57.285Z,10.97
2018-09-25T08:08:30.689Z,9.43
2018-09-25T08:11:03.893Z,8.57
2018-09-25T08:13:36.805Z,11.70
2018-09-25T08:16:10.582Z,9.43
2018-09-25T08:18:43.701Z,8.67
2018-09-25T08:21:16.605Z,8.43
2018-09-25T08:23:50.017Z,14.20
2018-09-25T08:26:23.183Z,5.93
2018-09-25T08:28:56.341Z,7.10
2018-09-25T08:31:29.229Z,6.80
2018-09-25T08:34:02.441Z,6.93
2018-09-25T08:36:35.633Z,9.60
2018-09-25T08:39:10.744Z,6.20
2018-09-25T08:41:44.008Z,6.43
2018-09-25T08:44:17.085Z,6.37
2018-09-25T08:46:50.003Z,5.73
2018-09-25T08:49:22.993Z,4.90
2018-09-25T08:51:55.883Z,3.97
2018-09-25T08:54:28.834Z,4.30
2018-09-25T08:57:01.989Z,4.33
2018-09-25T08:59:34.997Z,7.83
2018-09-25T09:02:08.126Z,6.90
2018-09-25T09:04:41.284Z,5.37
2018-09-25T09:07:14.225Z,4.90
2018-09-25T09:09:47.362Z,4.80
2018-09-25T09:12:20.395Z,7.93
2018-09-25T09:14:53.292Z,4.70
2018-09-25T09:17:26.193Z,5.13
2018-09-25T09:19:59.134Z,5.50
2018-09-25T09:22:32.101Z,7.70
2018-09-25T09:25:05.094Z,4.20
2018-09-25T09:27:38.237Z,4.30
2018-09-25T09:30:11.525Z,4.77
2018-09-25T09:32:44.426Z,3.73
2018-09-25T09:35:17.613Z,4.00
2018-09-25T09:37:50.765Z,5.57
2018-09-25T09:40:23.826Z,6.67
2018-09-25T09:42:57.082Z,3.10
2018-09-25T09:45:30.249Z,3.40
2018-09-25T09:48:03.257Z,3.73
2018-09-25T09:50:36.285Z,4.70
2018-09-25T09:53:09.421Z,2.23
2018-09-25T09:55:42.396Z,1.97
2018-09-25T09:58:15.373Z,4.10
2018-09-25T10:00:48.453Z,3.77
2018-09-25T10:03:21.356Z,5.20
2018-09-25T10:05:54.253Z,4.30
2018-09-25T10:08:27.184Z,1.80
2018-09-25T10:11:00.167Z,3.00
2018-09-25T10:13:33.427Z,2.23
2018-09-25T10:16:06.605Z,2.00
2018-09-25T10:18:39.498Z,4.03
2018-09-25T10:21:12.553Z,5.03
2018-09-25T10:23:45.441Z,2.43
2018-09-25T10:26:18.307Z,3.90
2018-09-25T10:28:51.241Z,4.07
2018-09-25T10:31:24.441Z,5.13
2018-09-25T10:33:57.692Z,3.00
2018-09-25T10:36:30.933Z,3.77
2018-09-25T10:39:04.091Z,1.87
2018-09-25T10:41:37.330Z,3.43
2018-09-25T10:44:10.499Z,3.67
2018-09-25T10:46:43.420Z,2.67
2018-09-25T10:49:16.501Z,1.80
2018-09-25T10:51:49.451Z,2.87
2018-09-25T10:54:22.336Z,2.80
2018-09-25T10:56:55.604Z,2.07
2018-09-25T10:59:28.545Z,1.20
2018-09-25T11:02:01.445Z,2.30
2018-09-25T11:04:34.305Z,3.27
2018-09-25T11:07:07.322Z,4.60
2018-09-25T11:09:40.263Z,2.43
2018-09-25T11:12:13.245Z,4.20
2018-09-25T11:14:46.204Z,1.27
2018-09-25T11:17:19.116Z,2.20
2018-09-25T11:19:52.364Z,2.77
2018-09-25T11:22:25.261Z,4.70
2018-09-25T11:24:58.363Z,2.30
2018-09-25T11:27:31.325Z,1.47
2018-09-25T11:30:04.301Z,2.20
2018-09-25T11:32:37.153Z,2.90
2018-09-25T11:35:10.188Z,2.13
2018-09-25T11:37:43.097Z,3.13
2018-09-25T11:40:16.290Z,2.50
2018-09-25T11:42:49.250Z,1.73
2018-09-25T11:45:22.325Z,1.30
2018-09-25T11:47:55.231Z,1.60
2018-09-25T11:50:28.149Z,8.13
2018-09-25T11:53:01.215Z,2.00
2018-09-25T11:55:34.296Z,2.00
2018-09-25T11:58:07.459Z,2.20
2018-09-25T12:00:40.468Z,2.07
2018-09-25T12:03:13.437Z,3.70
2018-09-25T12:05:46.340Z,5.17
2018-09-25T12:08:19.551Z,1.43
2018-09-25T12:10:52.677Z,1.63
2018-09-25T12:13:25.574Z,1.50
2018-09-25T12:15:58.699Z,2.10
2018-09-25T12:18:31.785Z,1.80
2018-09-25T12:21:04.936Z,2.60
2018-09-25T12:23:38.049Z,1.40
2018-09-25T12:26:11.420Z,3.30
2018-09-25T12:28:44.324Z,2.10
2018-09-25T12:31:17.976Z,1.23
2018-09-25T12:33:51.095Z,3.87
2018-09-25T12:36:24.091Z,2.90
2018-09-25T12:38:57.137Z,1.33
2018-09-25T12:41:30.324Z,1.93
2018-09-25T12:44:03.560Z,1.83
2018-09-25T12:46:36.506Z,2.20
2018-09-25T12:49:09.653Z,3.60
2018-09-25T12:51:42.533Z,1.80
2018-09-25T12:54:15.439Z,1.97
2018-09-25T12:56:48.553Z,1.33
2018-09-25T12:59:21.542Z,3.17
2018-09-25T13:01:54.715Z,2.90
2018-09-25T13:04:27.723Z,1.80
2018-09-25T13:07:00.867Z,1.23
2018-09-25T13:09:33.784Z,3.00
2018-09-25T13:12:06.878Z,1.97
2018-09-25T13:14:39.782Z,2.93
2018-09-25T13:17:12.857Z,2.17
2018-09-25T13:19:45.996Z,2.90
2018-09-25T13:22:19.225Z,3.73
2018-09-25T13:24:52.156Z,4.27
2018-09-25T13:27:25.055Z,2.70
2018-09-25T13:29:58.004Z,3.67
2018-09-25T13:32:31.201Z,1.00
2018-09-25T13:35:04.189Z,1.87
2018-09-25T13:37:37.284Z,4.40
2018-09-25T13:40:10.597Z,2.90
2018-09-25T13:42:43.476Z,2.30
2018-09-25T13:45:16.343Z,2.00
2018-09-25T13:47:49.229Z,3.63
2018-09-25T13:50:22.914Z,3.10
2018-09-25T13:52:55.984Z,3.57
2018-09-25T13:55:28.910Z,3.23
2018-09-25T13:58:01.893Z,2.57
2018-09-25T14:00:34.865Z,2.00
2018-09-25T14:03:07.820Z,3.60
2018-09-25T14:05:40.902Z,3.43
2018-09-25T14:08:14.028Z,4.40
2018-09-25T14:10:46.937Z,3.60
2018-09-25T14:13:19.832Z,2.17
2018-09-25T14:15:52.909Z,2.40
2018-09-25T14:18:26.156Z,3.50
2018-09-25T14:20:59.123Z,1.30
2018-09-25T14:23:32.324Z,4.93
2018-09-25T14:26:05.401Z,2.47
2018-09-25T14:28:38.313Z,2.80
2018-09-25T14:31:11.568Z,2.53
2018-09-25T14:33:44.472Z,2.00
2018-09-25T14:36:17.614Z,3.97
2018-09-25T14:38:50.756Z,3.70
2018-09-25T14:41:23.885Z,2.57
2018-09-25T14:43:56.778Z,3.53
2018-09-25T14:46:29.920Z,3.57
2018-09-25T14:49:02.902Z,7.00
2018-09-25T14:51:35.883Z,11.03
2018-09-25T14:54:09.057Z,2.60
2018-09-25T14:56:42.162Z,3.57
2018-09-25T14:59:15.281Z,2.93
2018-09-25T15:01:48.392Z,1.50
2018-09-25T15:04:21.421Z,2.33
2018-09-25T15:06:54.306Z,2.80
2018-09-25T15:09:27.225Z,2.47
2018-09-25T15:12:00.081Z,2.73
2018-09-25T15:14:32.985Z,4.30
2018-09-25T15:17:06.314Z,3.03
2018-09-25T15:19:39.538Z,2.80
2018-09-25T15:22:13.072Z,3.17
2018-09-25T15:24:45.813Z,3.73
2018-09-25T15:27:18.892Z,2.03
2018-09-25T15:29:51.761Z,4.07
2018-09-25T15:32:24.780Z,1.40
2018-09-25T15:34:57.886Z,3.57
2018-09-25T15:37:30.785Z,2.67
2018-09-25T15:40:04.317Z,2.73
2018-09-25T15:42:37.437Z,3.70
2018-09-25T15:45:10.869Z,2.37
2018-09-25T15:47:44.009Z,1.97
2018-09-25T15:50:17.125Z,3.20
2018-09-25T15:52:50.262Z,2.97
2018-09-25T15:55:23.902Z,4.67
2018-09-25T15:57:57.024Z,5.40
2018-09-25T16:00:30.633Z,3.30
2018-09-25T16:03:03.640Z,2.97
2018-09-25T16:05:36.798Z,3.20
2018-09-25T16:08:09.977Z,3.73
2018-09-25T16:10:43.113Z,4.30
2018-09-25T16:13:16.238Z,2.80
2018-09-25T16:15:49.449Z,5.00
2018-09-25T16:18:23.106Z,4.50
2018-09-25T16:20:56.237Z,3.10
2018-09-25T16:23:33.837Z,3.43
2018-09-25T16:26:06.970Z,2.77
2018-09-25T16:28:40.025Z,3.00
2018-09-25T16:31:13.432Z,3.63
2018-09-25T16:33:46.885Z,4.70
2018-09-25T16:36:20.000Z,6.30
2018-09-25T16:38:53.170Z,3.43
2018-09-25T16:41:26.617Z,3.13
2018-09-25T16:43:59.487Z,5.43
2018-09-25T16:46:32.478Z,4.40
2018-09-25T16:49:05.384Z,2.50
2018-09-25T16:51:38.329Z,5.20
2018-09-25T16:54:11.945Z,4.70
2018-09-25T16:56:44.864Z,3.20
2018-09-25T16:59:18.033Z,3.83
2018-09-25T17:01:51.066Z,5.13
2018-09-25T17:04:24.599Z,2.40
2018-09-25T17:06:58.151Z,3.13
2018-09-25T17:09:31.197Z,5.10
2018-09-25T17:12:04.450Z,3.97
2018-09-25T17:14:37.803Z,3.87
2018-09-25T17:17:12.071Z,5.93
2018-09-25T17:19:45.365Z,5.47
2018-09-25T17:22:18.506Z,3.83
2018-09-25T17:24:52.197Z,3.50
2018-09-25T17:27:26.306Z,3.10
2018-09-25T17:29:59.829Z,3.13
2018-09-25T17:32:32.889Z,6.60
2018-09-25T17:35:06.743Z,4.93
2018-09-25T17:37:39.925Z,4.30
2018-09-25T17:40:13.209Z,8.53
2018-09-25T17:42:46.459Z,4.37
2018-09-25T17:45:19.590Z,3.83
2018-09-25T17:47:52.599Z,9.17
2018-09-25T17:50:25.731Z,6.90
2018-09-25T17:52:58.969Z,9.97
2018-09-25T17:55:31.850Z,6.17
2018-09-25T17:58:05.005Z,9.83
2018-09-25T18:00:38.000Z,6.87
2018-09-25T18:03:11.949Z,7.80
2018-09-25T18:05:45.154Z,4.30
2018-09-25T18:08:18.335Z,5.10
2018-09-25T18:10:51.446Z,5.23
2018-09-25T18:13:24.409Z,6.17
2018-09-25T18:15:57.354Z,5.00
2018-09-25T18:18:30.633Z,8.03
2018-09-25T18:21:04.081Z,5.53
2018-09-25T18:23:37.064Z,4.70
2018-09-25T18:26:10.261Z,4.37
2018-09-25T18:28:43.347Z,4.57
2018-09-25T18:31:16.566Z,6.53
2018-09-25T18:33:49.683Z,6.43
2018-09-25T18:36:22.956Z,5.50
2018-09-25T18:38:55.893Z,3.77
2018-09-25T18:41:28.833Z,7.30
2018-09-25T18:44:02.037Z,5.63
2018-09-25T18:46:35.032Z,10.03
2018-09-25T18:49:07.961Z,5.70
2018-09-25T18:51:40.955Z,9.23
2018-09-25T18:54:13.915Z,8.10
2018-09-25T18:56:47.241Z,6.43
2018-09-25T18:59:20.168Z,7.50
2018-09-25T19:01:53.570Z,6.67
2018-09-25T19:04:26.828Z,5.90
2018-09-25T19:06:59.905Z,13.00
2018-09-25T19:09:32.837Z,8.63
2018-09-25T19:12:06.045Z,7.70
2018-09-25T19:14:39.029Z,6.33
2018-09-25T19:17:12.161Z,7.97
2018-09-25T19:19:45.081Z,7.13
2018-09-25T19:22:18.361Z,5.57
2018-09-25T19:24:51.465Z,7.10
2018-09-25T19:27:24.538Z,6.13
2018-09-25T19:29:57.722Z,5.73
2018-09-25T19:32:30.589Z,8.03
2018-09-25T19:35:03.477Z,7.67
2018-09-25T19:37:36.413Z,6.50
2018-09-25T19:40:09.337Z,8.43
2018-09-25T19:42:42.489Z,12.03
2018-09-25T19:45:15.422Z,8.63
2018-09-25T19:47:48.611Z,11.33
2018-09-25T19:50:21.761Z,6.27
2018-09-25T19:52:54.948Z,7.20
2018-09-25T19:55:28.159Z,6.40
2018-09-25T19:58:01.378Z,10.10
2018-09-25T20:00:34.747Z,5.10
2018-09-25T20:03:07.823Z,5.63
2018-09-25T20:05:40.756Z,9.97
2018-09-25T20:08:13.917Z,8.33
2018-09-25T20:10:47.173Z,5.53
2018-09-25T20:13:20.554Z,8.37
2018-09-25T20:15:53.562Z,8.30
2018-09-25T20:18:26.768Z,7.47
2018-09-25T20:20:59.988Z,11.03
2018-09-25T20:23:33.009Z,14.60
2018-09-25T20:26:06.243Z,8.67
2018-09-25T20:28:39.468Z,9.57
2018-09-25T20:31:12.833Z,11.93
2018-09-25T20:33:47.121Z,5.43
2018-09-25T20:36:20.125Z,6.80
2018-09-25T20:38:53.379Z,5.17
2018-09-25T20:41:26.674Z,7.20
2018-09-25T20:43:59.741Z,5.87
2018-09-25T20:46:33.725Z,6.27
2018-09-25T20:49:06.706Z,5.60
2018-09-25T20:51:40.175Z,4.40
2018-09-25T20:54:13.325Z,4.40
2018-09-25T20:56:48.678Z,5.53
2018-09-25T20:59:21.863Z,4.30
2018-09-25T21:01:55.022Z,6.63
2018-09-25T21:04:27.953Z,4.40
2018-09-25T21:07:01.254Z,7.17
2018-09-25T21:09:34.229Z,5.93
2018-09-25T21:12:07.415Z,7.10
2018-09-25T21:14:40.336Z,5.10
2018-09-25T21:17:13.664Z,5.40
2018-09-25T21:19:46.663Z,7.30
2018-09-25T21:22:19.649Z,8.00
2018-09-25T21:24:52.881Z,8.63
2018-09-25T21:27:25.927Z,6.80
2018-09-25T21:29:58.785Z,7.93
2018-09-25T21:32:31.698Z,5.53
2018-09-25T21:35:04.634Z,6.43
2018-09-25T21:37:37.737Z,7.73
2018-09-25T21:40:10.953Z,7.10
2018-09-25T21:42:43.847Z,6.60
2018-09-25T21:45:17.091Z,5.40
2018-09-25T21:47:49.981Z,5.30
2018-09-25T21:50:22.884Z,6.93
2018-09-25T21:52:55.865Z,5.50
2018-09-25T21:55:29.060Z,7.50
2018-09-25T21:58:02.110Z,7.30
2018-09-25T22:00:35.072Z,7.27
2018-09-25T22:03:07.884Z,9.90
2018-09-25T22:05:47.819Z,5.80
2018-09-25T22:08:21.042Z,5.50
2018-09-25T22:10:54.014Z,5.47
2018-09-25T22:13:27.028Z,5.57
2018-09-25T22:16:00.270Z,9.10
2018-09-25T22:18:33.233Z,5.07
2018-09-25T22:21:06.345Z,6.57
2018-09-25T22:23:39.409Z,6.87
2018-09-25T22:26:12.582Z,6.80
2018-09-25T22:28:45.715Z,7.80
2018-09-25T22:31:18.672Z,9.63
2018-09-25T22:33:51.780Z,10.33
2018-09-25T22:36:24.765Z,8.70
2018-09-25T22:38:57.790Z,5.33
2018-09-25T22:41:31.001Z,6.00
2018-09-25T22:44:03.976Z,7.40
2018-09-25T22:46:37.229Z,6.67
2018-09-25T22:49:10.331Z,8.83
2018-09-25T22:51:43.190Z,6.50
2018-09-25T22:54:16.270Z,8.10
2018-09-25T22:56:49.196Z,6.30
2018-09-25T22:59:22.216Z,6.03
2018-09-25T23:01:55.252Z,4.93
2018-09-25T23:04:28.401Z,7.50
2018-09-25T23:07:01.593Z,6.33
2018-09-25T23:09:34.837Z,5.93
2018-09-25T23:12:07.788Z,7.93
2018-09-25T23:14:40.917Z,5.50
2018-09-25T23:17:13.920Z,10.33
2018-09-25T23:19:46.896Z,5.90
2018-09-25T23:22:19.824Z,7.50
2018-09-25T23:24:52.790Z,5.70
2018-09-25T23:27:25.795Z,8.43
2018-09-25T23:29:58.984Z,6.77
2018-09-25T23:32:31.925Z,8.67
2018-09-25T23:35:05.072Z,6.93
2018-09-25T23:37:38.012Z,7.23
2018-09-25T23:41:09.944Z,8.40
2018-09-25T23:43:44.865Z,7.10
2018-09-25T23:46:19.395Z,7.77
2018-09-25T23:49:08.473Z,7.60
2018-09-25T23:51:47.341Z,8.57
2018-09-25T23:54:19.341Z,7.10
2018-09-25T23:56:50.168Z,10.57
2018-09-25T23:59:21.348Z,6.57
